sensor_id;sensor_type;location;lat;lon;timestamp;pressure;altitude;pressure_sealevel;temperature
64960;BMP180;51487;52.266;10.542;2024-03-02T00:00:50;99534.00;;;8.20
64960;BMP180;51487;52.266;10.542;2024-03-02T00:03:17;99528.00;;;8.10
64960;BMP180;51487;52.266;10.542;2024-03-02T00:05:43;99525.00;;;8.10
64960;BMP180;51487;52.266;10.542;2024-03-02T00:08:09;99527.00;;;8.20
64960;BMP180;51487;52.266;10.542;2024-03-02T00:10:38;99521.00;;;8.10
64960;BMP180;51487;52.266;10.542;2024-03-02T00:13:06;99524.00;;;8.20
64960;BMP180;51487;52.266;10.542;2024-03-02T00:18:23;99526.00;;;8.20
64960;BMP180;51487;52.266;10.542;2024-03-02T00:20:55;99519.00;;;8.20
64960;BMP180;51487;52.266;10.542;2024-03-02T00:23:22;99515.00;;;8.10
64960;BMP180;51487;52.266;10.542;2024-03-02T00:25:50;99517.00;;;8.10
64960;BMP180;51487;52.266;10.542;2024-03-02T00:28:25;99519.00;;;8.10
64960;BMP180;51487;52.266;10.542;2024-03-02T00:33:32;99513.00;;;8.10
64960;BMP180;51487;52.266;10.542;2024-03-02T00:36:08;99510.00;;;8.10
64960;BMP180;51487;52.266;10.542;2024-03-02T00:38:34;99515.00;;;8.10
64960;BMP180;51487;52.266;10.542;2024-03-02T00:41:32;99514.00;;;8.10
64960;BMP180;51487;52.266;10.542;2024-03-02T00:46:27;99503.00;;;8.00
64960;BMP180;51487;52.266;10.542;2024-03-02T00:49:03;99506.00;;;8.00
64960;BMP180;51487;52.266;10.542;2024-03-02T00:51:31;99508.00;;;8.00
64960;BMP180;51487;52.266;10.542;2024-03-02T00:54:00;99501.00;;;8.00
64960;BMP180;51487;52.266;10.542;2024-03-02T00:56:29;99506.00;;;8.10
64960;BMP180;51487;52.266;10.542;2024-03-02T00:58:56;99504.00;;;8.00
64960;BMP180;51487;52.266;10.542;2024-03-02T01:01:21;99504.00;;;8.00
64960;BMP180;51487;52.266;10.542;2024-03-02T01:03:48;99496.00;;;8.00
64960;BMP180;51487;52.266;10.542;2024-03-02T01:06:17;99498.00;;;7.90
64960;BMP180;51487;52.266;10.542;2024-03-02T01:08:42;99497.00;;;7.90
64960;BMP180;51487;52.266;10.542;2024-03-02T01:11:08;99502.00;;;7.90
64960;BMP180;51487;52.266;10.542;2024-03-02T01:13:34;99495.00;;;7.90
64960;BMP180;51487;52.266;10.542;2024-03-02T01:16:00;99495.00;;;8.00
64960;BMP180;51487;52.266;10.542;2024-03-02T01:18:26;99498.00;;;8.00
64960;BMP180;51487;52.266;10.542;2024-03-02T01:20:52;99490.00;;;7.90
64960;BMP180;51487;52.266;10.542;2024-03-02T01:23:19;99490.00;;;7.90
64960;BMP180;51487;52.266;10.542;2024-03-02T01:25:45;99495.00;;;7.90
64960;BMP180;51487;52.266;10.542;2024-03-02T01:28:14;99493.00;;;7.90
64960;BMP180;51487;52.266;10.542;2024-03-02T01:30:40;99495.00;;;7.80
64960;BMP180;51487;52.266;10.542;2024-03-02T01:33:08;99496.00;;;7.80
64960;BMP180;51487;52.266;10.542;2024-03-02T01:35:34;99494.00;;;7.90
64960;BMP180;51487;52.266;10.542;2024-03-02T01:38:01;99494.00;;;7.90
64960;BMP180;51487;52.266;10.542;2024-03-02T01:40:27;99489.00;;;7.90
64960;BMP180;51487;52.266;10.542;2024-03-02T01:42:53;99496.00;;;8.00
64960;BMP180;51487;52.266;10.542;2024-03-02T01:45:20;99485.00;;;8.00
64960;BMP180;51487;52.266;10.542;2024-03-02T01:47:46;99489.00;;;7.90
64960;BMP180;51487;52.266;10.542;2024-03-02T01:50:12;99502.00;;;7.90
64960;BMP180;51487;52.266;10.542;2024-03-02T01:52:38;99497.00;;;7.90
64960;BMP180;51487;52.266;10.542;2024-03-02T01:55:06;99504.00;;;7.80
64960;BMP180;51487;52.266;10.542;2024-03-02T01:57:33;99502.00;;;7.80
64960;BMP180;51487;52.266;10.542;2024-03-02T02:00:00;99499.00;;;7.70
64960;BMP180;51487;52.266;10.542;2024-03-02T02:02:25;99504.00;;;7.70
64960;BMP180;51487;52.266;10.542;2024-03-02T02:04:51;99498.00;;;7.70
64960;BMP180;51487;52.266;10.542;2024-03-02T02:07:17;99512.00;;;7.70
64960;BMP180;51487;52.266;10.542;2024-03-02T02:09:42;99510.00;;;7.70
64960;BMP180;51487;52.266;10.542;2024-03-02T02:12:09;99509.00;;;7.90
64960;BMP180;51487;52.266;10.542;2024-03-02T02:14:36;99509.00;;;7.80
64960;BMP180;51487;52.266;10.542;2024-03-02T02:17:02;99501.00;;;7.80
64960;BMP180;51487;52.266;10.542;2024-03-02T02:19:28;99508.00;;;7.80
64960;BMP180;51487;52.266;10.542;2024-03-02T02:21:54;99502.00;;;7.90
64960;BMP180;51487;52.266;10.542;2024-03-02T02:24:20;99516.00;;;7.80
64960;BMP180;51487;52.266;10.542;2024-03-02T02:26:45;99513.00;;;7.90
64960;BMP180;51487;52.266;10.542;2024-03-02T02:29:11;99508.00;;;7.90
64960;BMP180;51487;52.266;10.542;2024-03-02T02:31:40;99512.00;;;7.80
64960;BMP180;51487;52.266;10.542;2024-03-02T02:34:06;99507.00;;;7.80
64960;BMP180;51487;52.266;10.542;2024-03-02T02:36:33;99498.00;;;7.80
64960;BMP180;51487;52.266;10.542;2024-03-02T02:39:03;99497.00;;;7.80
64960;BMP180;51487;52.266;10.542;2024-03-02T02:41:31;99497.00;;;7.80
64960;BMP180;51487;52.266;10.542;2024-03-02T02:43:57;99506.00;;;7.70
64960;BMP180;51487;52.266;10.542;2024-03-02T02:46:23;99500.00;;;7.80
64960;BMP180;51487;52.266;10.542;2024-03-02T02:48:48;99496.00;;;7.70
64960;BMP180;51487;52.266;10.542;2024-03-02T02:51:14;99497.00;;;7.80
64960;BMP180;51487;52.266;10.542;2024-03-02T02:53:40;99496.00;;;7.80
64960;BMP180;51487;52.266;10.542;2024-03-02T02:56:09;99495.00;;;7.80
64960;BMP180;51487;52.266;10.542;2024-03-02T02:58:34;99497.00;;;7.90
64960;BMP180;51487;52.266;10.542;2024-03-02T03:01:01;99488.00;;;7.80
64960;BMP180;51487;52.266;10.542;2024-03-02T03:03:26;99484.00;;;7.80
64960;BMP180;51487;52.266;10.542;2024-03-02T03:05:52;99484.00;;;7.70
64960;BMP180;51487;52.266;10.542;2024-03-02T03:08:17;99482.00;;;7.80
64960;BMP180;51487;52.266;10.542;2024-03-02T03:10:43;99479.00;;;7.80
64960;BMP180;51487;52.266;10.542;2024-03-02T03:13:10;99472.00;;;7.80
64960;BMP180;51487;52.266;10.542;2024-03-02T03:15:35;99474.00;;;7.70
64960;BMP180;51487;52.266;10.542;2024-03-02T03:18:03;99486.00;;;7.80
64960;BMP180;51487;52.266;10.542;2024-03-02T03:20:29;99486.00;;;7.80
64960;BMP180;51487;52.266;10.542;2024-03-02T03:22:56;99480.00;;;7.80
64960;BMP180;51487;52.266;10.542;2024-03-02T03:25:22;99478.00;;;7.80
64960;BMP180;51487;52.266;10.542;2024-03-02T03:27:48;99480.00;;;7.80
64960;BMP180;51487;52.266;10.542;2024-03-02T03:30:13;99472.00;;;7.70
64960;BMP180;51487;52.266;10.542;2024-03-02T03:32:39;99476.00;;;7.70
64960;BMP180;51487;52.266;10.542;2024-03-02T03:35:05;99482.00;;;7.80
64960;BMP180;51487;52.266;10.542;2024-03-02T03:37:31;99482.00;;;7.80
64960;BMP180;51487;52.266;10.542;2024-03-02T03:40:00;99470.00;;;7.70
64960;BMP180;51487;52.266;10.542;2024-03-02T03:42:27;99466.00;;;7.60
64960;BMP180;51487;52.266;10.542;2024-03-02T03:44:53;99472.00;;;7.70
64960;BMP180;51487;52.266;10.542;2024-03-02T03:47:19;99478.00;;;7.80
64960;BMP180;51487;52.266;10.542;2024-03-02T03:49:45;99470.00;;;7.80
64960;BMP180;51487;52.266;10.542;2024-03-02T03:52:11;99462.00;;;7.80
64960;BMP180;51487;52.266;10.542;2024-03-02T03:54:37;99464.00;;;7.80
64960;BMP180;51487;52.266;10.542;2024-03-02T03:57:04;99466.00;;;7.80
64960;BMP180;51487;52.266;10.542;2024-03-02T03:59:29;99460.00;;;7.80
64960;BMP180;51487;52.266;10.542;2024-03-02T04:01:56;99463.00;;;7.60
64960;BMP180;51487;52.266;10.542;2024-03-02T04:04:21;99465.00;;;7.60
64960;BMP180;51487;52.266;10.542;2024-03-02T04:06:47;99463.00;;;7.60
64960;BMP180;51487;52.266;10.542;2024-03-02T04:09:13;99460.00;;;7.60
64960;BMP180;51487;52.266;10.542;2024-03-02T04:11:38;99460.00;;;7.50
64960;BMP180;51487;52.266;10.542;2024-03-02T04:14:04;99463.00;;;7.60
64960;BMP180;51487;52.266;10.542;2024-03-02T04:16:31;99465.00;;;7.70
64960;BMP180;51487;52.266;10.542;2024-03-02T04:18:57;99459.00;;;7.70
64960;BMP180;51487;52.266;10.542;2024-03-02T04:21:22;99464.00;;;7.70
64960;BMP180;51487;52.266;10.542;2024-03-02T04:23:48;99462.00;;;7.70
64960;BMP180;51487;52.266;10.542;2024-03-02T04:26:14;99456.00;;;7.60
64960;BMP180;51487;52.266;10.542;2024-03-02T04:28:40;99466.00;;;7.60
64960;BMP180;51487;52.266;10.542;2024-03-02T04:31:05;99456.00;;;7.50
64960;BMP180;51487;52.266;10.542;2024-03-02T04:33:31;99466.00;;;7.50
64960;BMP180;51487;52.266;10.542;2024-03-02T04:35:56;99468.00;;;7.50
64960;BMP180;51487;52.266;10.542;2024-03-02T04:38:22;99465.00;;;7.50
64960;BMP180;51487;52.266;10.542;2024-03-02T04:40:48;99468.00;;;7.50
64960;BMP180;51487;52.266;10.542;2024-03-02T04:43:14;99475.00;;;7.50
64960;BMP180;51487;52.266;10.542;2024-03-02T04:45:41;99476.00;;;7.40
64960;BMP180;51487;52.266;10.542;2024-03-02T04:48:08;99475.00;;;7.40
64960;BMP180;51487;52.266;10.542;2024-03-02T04:50:33;99472.00;;;7.40
64960;BMP180;51487;52.266;10.542;2024-03-02T04:52:59;99475.00;;;7.30
64960;BMP180;51487;52.266;10.542;2024-03-02T04:55:24;99483.00;;;7.30
64960;BMP180;51487;52.266;10.542;2024-03-02T04:58:10;99477.00;;;7.30
64960;BMP180;51487;52.266;10.542;2024-03-02T05:00:35;99480.00;;;7.20
64960;BMP180;51487;52.266;10.542;2024-03-02T05:03:02;99485.00;;;7.20
64960;BMP180;51487;52.266;10.542;2024-03-02T05:05:28;99487.00;;;7.20
64960;BMP180;51487;52.266;10.542;2024-03-02T05:07:53;99486.00;;;7.30
64960;BMP180;51487;52.266;10.542;2024-03-02T05:10:19;99485.00;;;7.30
64960;BMP180;51487;52.266;10.542;2024-03-02T05:12:45;99485.00;;;7.30
64960;BMP180;51487;52.266;10.542;2024-03-02T05:15:14;99489.00;;;7.30
64960;BMP180;51487;52.266;10.542;2024-03-02T05:17:40;99490.00;;;7.30
64960;BMP180;51487;52.266;10.542;2024-03-02T05:20:08;99484.00;;;7.30
64960;BMP180;51487;52.266;10.542;2024-03-02T05:22:34;99494.00;;;7.30
64960;BMP180;51487;52.266;10.542;2024-03-02T05:25:02;99492.00;;;7.40
64960;BMP180;51487;52.266;10.542;2024-03-02T05:27:28;99490.00;;;7.30
64960;BMP180;51487;52.266;10.542;2024-03-02T05:29:53;99497.00;;;7.30
64960;BMP180;51487;52.266;10.542;2024-03-02T05:32:19;99497.00;;;7.30
64960;BMP180;51487;52.266;10.542;2024-03-02T05:34:45;99491.00;;;7.30
64960;BMP180;51487;52.266;10.542;2024-03-02T05:37:10;99490.00;;;7.30
64960;BMP180;51487;52.266;10.542;2024-03-02T05:39:36;99489.00;;;7.20
64960;BMP180;51487;52.266;10.542;2024-03-02T05:42:02;99486.00;;;7.10
64960;BMP180;51487;52.266;10.542;2024-03-02T05:44:28;99486.00;;;7.10
64960;BMP180;51487;52.266;10.542;2024-03-02T05:46:54;99490.00;;;7.10
64960;BMP180;51487;52.266;10.542;2024-03-02T05:49:19;99487.00;;;7.00
64960;BMP180;51487;52.266;10.542;2024-03-02T05:51:45;99494.00;;;7.00
64960;BMP180;51487;52.266;10.542;2024-03-02T05:54:10;99488.00;;;7.00
64960;BMP180;51487;52.266;10.542;2024-03-02T05:56:36;99487.00;;;7.00
64960;BMP180;51487;52.266;10.542;2024-03-02T05:59:01;99489.00;;;7.00
64960;BMP180;51487;52.266;10.542;2024-03-02T06:01:41;99495.00;;;7.00
64960;BMP180;51487;52.266;10.542;2024-03-02T06:04:08;99496.00;;;7.00
64960;BMP180;51487;52.266;10.542;2024-03-02T06:06:34;99498.00;;;7.00
64960;BMP180;51487;52.266;10.542;2024-03-02T06:09:04;99503.00;;;7.00
64960;BMP180;51487;52.266;10.542;2024-03-02T06:11:35;99507.00;;;7.10
64960;BMP180;51487;52.266;10.542;2024-03-02T06:14:06;99505.00;;;7.10
64960;BMP180;51487;52.266;10.542;2024-03-02T06:16:33;99503.00;;;7.00
64960;BMP180;51487;52.266;10.542;2024-03-02T06:18:59;99506.00;;;6.90
64960;BMP180;51487;52.266;10.542;2024-03-02T06:21:25;99505.00;;;6.90
64960;BMP180;51487;52.266;10.542;2024-03-02T06:23:54;99507.00;;;7.00
64960;BMP180;51487;52.266;10.542;2024-03-02T06:26:20;99510.00;;;7.00
64960;BMP180;51487;52.266;10.542;2024-03-02T06:28:46;99516.00;;;7.00
64960;BMP180;51487;52.266;10.542;2024-03-02T06:31:11;99505.00;;;7.10
64960;BMP180;51487;52.266;10.542;2024-03-02T06:33:37;99518.00;;;7.10
64960;BMP180;51487;52.266;10.542;2024-03-02T06:36:03;99513.00;;;7.10
64960;BMP180;51487;52.266;10.542;2024-03-02T06:38:29;99509.00;;;7.00
64960;BMP180;51487;52.266;10.542;2024-03-02T06:40:57;99516.00;;;7.10
64960;BMP180;51487;52.266;10.542;2024-03-02T06:43:23;99513.00;;;7.00
64960;BMP180;51487;52.266;10.542;2024-03-02T06:45:52;99510.00;;;7.10
64960;BMP180;51487;52.266;10.542;2024-03-02T06:48:18;99510.00;;;7.10
64960;BMP180;51487;52.266;10.542;2024-03-02T06:50:48;99516.00;;;7.00
64960;BMP180;51487;52.266;10.542;2024-03-02T06:53:15;99523.00;;;7.00
64960;BMP180;51487;52.266;10.542;2024-03-02T06:55:44;99520.00;;;6.90
64960;BMP180;51487;52.266;10.542;2024-03-02T06:58:14;99532.00;;;7.00
64960;BMP180;51487;52.266;10.542;2024-03-02T07:00:42;99529.00;;;6.90
64960;BMP180;51487;52.266;10.542;2024-03-02T07:03:09;99516.00;;;6.90
64960;BMP180;51487;52.266;10.542;2024-03-02T07:05:35;99521.00;;;6.90
64960;BMP180;51487;52.266;10.542;2024-03-02T07:08:00;99517.00;;;6.90
64960;BMP180;51487;52.266;10.542;2024-03-02T07:10:26;99524.00;;;6.90
64960;BMP180;51487;52.266;10.542;2024-03-02T07:12:52;99508.00;;;6.90
64960;BMP180;51487;52.266;10.542;2024-03-02T07:15:18;99514.00;;;6.80
64960;BMP180;51487;52.266;10.542;2024-03-02T07:17:55;99518.00;;;6.90
64960;BMP180;51487;52.266;10.542;2024-03-02T07:20:21;99520.00;;;7.00
64960;BMP180;51487;52.266;10.542;2024-03-02T07:22:46;99519.00;;;7.00
64960;BMP180;51487;52.266;10.542;2024-03-02T07:25:12;99515.00;;;7.10
64960;BMP180;51487;52.266;10.542;2024-03-02T07:27:38;99516.00;;;7.10
64960;BMP180;51487;52.266;10.542;2024-03-02T07:30:05;99524.00;;;7.20
64960;BMP180;51487;52.266;10.542;2024-03-02T07:32:32;99523.00;;;7.20
64960;BMP180;51487;52.266;10.542;2024-03-02T07:34:57;99526.00;;;7.30
64960;BMP180;51487;52.266;10.542;2024-03-02T07:37:23;99526.00;;;7.40
64960;BMP180;51487;52.266;10.542;2024-03-02T07:39:50;99535.00;;;7.50
64960;BMP180;51487;52.266;10.542;2024-03-02T07:42:16;99532.00;;;7.40
64960;BMP180;51487;52.266;10.542;2024-03-02T07:44:44;99535.00;;;7.50
64960;BMP180;51487;52.266;10.542;2024-03-02T07:47:10;99536.00;;;7.50
64960;BMP180;51487;52.266;10.542;2024-03-02T07:49:36;99542.00;;;7.60
64960;BMP180;51487;52.266;10.542;2024-03-02T07:52:02;99544.00;;;7.60
64960;BMP180;51487;52.266;10.542;2024-03-02T07:54:27;99545.00;;;7.60
64960;BMP180;51487;52.266;10.542;2024-03-02T07:56:53;99544.00;;;7.70
64960;BMP180;51487;52.266;10.542;2024-03-02T07:59:18;99552.00;;;7.80
64960;BMP180;51487;52.266;10.542;2024-03-02T08:01:44;99557.00;;;7.90
64960;BMP180;51487;52.266;10.542;2024-03-02T08:04:10;99560.00;;;8.00
64960;BMP180;51487;52.266;10.542;2024-03-02T08:06:35;99556.00;;;8.10
64960;BMP180;51487;52.266;10.542;2024-03-02T08:09:01;99560.00;;;8.10
64960;BMP180;51487;52.266;10.542;2024-03-02T08:11:27;99567.00;;;8.20
64960;BMP180;51487;52.266;10.542;2024-03-02T08:13:53;99564.00;;;8.20
64960;BMP180;51487;52.266;10.542;2024-03-02T08:16:21;99557.00;;;8.40
64960;BMP180;51487;52.266;10.542;2024-03-02T08:18:51;99561.00;;;8.40
64960;BMP180;51487;52.266;10.542;2024-03-02T08:21:17;99560.00;;;8.40
64960;BMP180;51487;52.266;10.542;2024-03-02T08:23:43;99564.00;;;8.50
64960;BMP180;51487;52.266;10.542;2024-03-02T08:26:09;99565.00;;;8.50
64960;BMP180;51487;52.266;10.542;2024-03-02T08:28:35;99566.00;;;8.50
64960;BMP180;51487;52.266;10.542;2024-03-02T08:31:07;99570.00;;;8.60
64960;BMP180;51487;52.266;10.542;2024-03-02T08:33:33;99570.00;;;8.70
64960;BMP180;51487;52.266;10.542;2024-03-02T08:36:00;99572.00;;;8.70
64960;BMP180;51487;52.266;10.542;2024-03-02T08:38:25;99567.00;;;8.80
64960;BMP180;51487;52.266;10.542;2024-03-02T08:40:51;99567.00;;;8.70
64960;BMP180;51487;52.266;10.542;2024-03-02T08:43:17;99560.00;;;8.80
64960;BMP180;51487;52.266;10.542;2024-03-02T08:45:43;99564.00;;;8.80
64960;BMP180;51487;52.266;10.542;2024-03-02T08:48:09;99568.00;;;8.70
64960;BMP180;51487;52.266;10.542;2024-03-02T08:50:35;99557.00;;;8.90
64960;BMP180;51487;52.266;10.542;2024-03-02T08:53:03;99561.00;;;9.00
64960;BMP180;51487;52.266;10.542;2024-03-02T08:55:28;99562.00;;;9.10
64960;BMP180;51487;52.266;10.542;2024-03-02T08:57:54;99565.00;;;9.10
64960;BMP180;51487;52.266;10.542;2024-03-02T09:00:20;99560.00;;;9.10
64960;BMP180;51487;52.266;10.542;2024-03-02T09:02:46;99563.00;;;9.10
64960;BMP180;51487;52.266;10.542;2024-03-02T09:05:12;99568.00;;;9.20
64960;BMP180;51487;52.266;10.542;2024-03-02T09:07:38;99572.00;;;9.20
64960;BMP180;51487;52.266;10.542;2024-03-02T09:10:07;99580.00;;;9.20
64960;BMP180;51487;52.266;10.542;2024-03-02T09:12:34;99574.00;;;9.30
64960;BMP180;51487;52.266;10.542;2024-03-02T09:15:01;99566.00;;;9.30
64960;BMP180;51487;52.266;10.542;2024-03-02T09:17:28;99567.00;;;9.40
64960;BMP180;51487;52.266;10.542;2024-03-02T09:19:54;99569.00;;;9.50
64960;BMP180;51487;52.266;10.542;2024-03-02T09:22:19;99574.00;;;9.60
64960;BMP180;51487;52.266;10.542;2024-03-02T09:24:45;99573.00;;;9.70
64960;BMP180;51487;52.266;10.542;2024-03-02T09:27:11;99568.00;;;9.80
64960;BMP180;51487;52.266;10.542;2024-03-02T09:29:36;99585.00;;;9.90
64960;BMP180;51487;52.266;10.542;2024-03-02T09:32:02;99574.00;;;9.90
64960;BMP180;51487;52.266;10.542;2024-03-02T09:34:28;99579.00;;;9.90
64960;BMP180;51487;52.266;10.542;2024-03-02T09:36:53;99579.00;;;10.10
64960;BMP180;51487;52.266;10.542;2024-03-02T09:39:19;99594.00;;;10.20
64960;BMP180;51487;52.266;10.542;2024-03-02T09:41:45;99599.00;;;10.20
64960;BMP180;51487;52.266;10.542;2024-03-02T09:44:12;99596.00;;;10.40
64960;BMP180;51487;52.266;10.542;2024-03-02T09:46:37;99594.00;;;10.50
64960;BMP180;51487;52.266;10.542;2024-03-02T09:49:03;99593.00;;;10.50
64960;BMP180;51487;52.266;10.542;2024-03-02T09:51:29;99598.00;;;10.70
64960;BMP180;51487;52.266;10.542;2024-03-02T09:53:56;99613.00;;;10.70
64960;BMP180;51487;52.266;10.542;2024-03-02T09:56:22;99606.00;;;10.70
64960;BMP180;51487;52.266;10.542;2024-03-02T09:58:48;99613.00;;;10.70
64960;BMP180;51487;52.266;10.542;2024-03-02T10:01:13;99606.00;;;10.90
64960;BMP180;51487;52.266;10.542;2024-03-02T10:03:39;99604.00;;;10.90
64960;BMP180;51487;52.266;10.542;2024-03-02T10:06:30;99612.00;;;11.10
64960;BMP180;51487;52.266;10.542;2024-03-02T10:08:56;99609.00;;;11.20
64960;BMP180;51487;52.266;10.542;2024-03-02T10:11:35;99615.00;;;11.10
64960;BMP180;51487;52.266;10.542;2024-03-02T10:14:10;99618.00;;;11.10
64960;BMP180;51487;52.266;10.542;2024-03-02T10:16:38;99614.00;;;11.20
64960;BMP180;51487;52.266;10.542;2024-03-02T10:19:22;99622.00;;;11.20
64960;BMP180;51487;52.266;10.542;2024-03-02T10:21:53;99619.00;;;11.30
64960;BMP180;51487;52.266;10.542;2024-03-02T10:24:21;99623.00;;;11.40
64960;BMP180;51487;52.266;10.542;2024-03-02T10:26:48;99629.00;;;11.50
64960;BMP180;51487;52.266;10.542;2024-03-02T10:29:14;99618.00;;;11.60
64960;BMP180;51487;52.266;10.542;2024-03-02T10:31:42;99623.00;;;11.70
64960;BMP180;51487;52.266;10.542;2024-03-02T10:34:10;99622.00;;;11.90
64960;BMP180;51487;52.266;10.542;2024-03-02T10:36:41;99628.00;;;11.90
64960;BMP180;51487;52.266;10.542;2024-03-02T10:39:08;99620.00;;;12.00
64960;BMP180;51487;52.266;10.542;2024-03-02T10:41:35;99626.00;;;11.90
64960;BMP180;51487;52.266;10.542;2024-03-02T10:44:09;99619.00;;;12.00
64960;BMP180;51487;52.266;10.542;2024-03-02T10:46:38;99622.00;;;12.10
64960;BMP180;51487;52.266;10.542;2024-03-02T10:49:05;99618.00;;;12.20
64960;BMP180;51487;52.266;10.542;2024-03-02T10:51:33;99614.00;;;12.30
64960;BMP180;51487;52.266;10.542;2024-03-02T10:54:02;99622.00;;;12.20
64960;BMP180;51487;52.266;10.542;2024-03-02T10:56:41;99620.00;;;12.30
64960;BMP180;51487;52.266;10.542;2024-03-02T10:59:34;99620.00;;;12.40
64960;BMP180;51487;52.266;10.542;2024-03-02T11:02:03;99617.00;;;12.30
64960;BMP180;51487;52.266;10.542;2024-03-02T11:04:30;99624.00;;;12.30
64960;BMP180;51487;52.266;10.542;2024-03-02T11:07:02;99621.00;;;12.30
64960;BMP180;51487;52.266;10.542;2024-03-02T11:09:33;99616.00;;;12.40
64960;BMP180;51487;52.266;10.542;2024-03-02T11:12:09;99622.00;;;12.60
64960;BMP180;51487;52.266;10.542;2024-03-02T11:14:50;99618.00;;;12.60
64960;BMP180;51487;52.266;10.542;2024-03-02T11:17:19;99614.00;;;12.60
64960;BMP180;51487;52.266;10.542;2024-03-02T11:19:46;99605.00;;;12.70
64960;BMP180;51487;52.266;10.542;2024-03-02T11:22:13;99606.00;;;12.70
64960;BMP180;51487;52.266;10.542;2024-03-02T11:24:47;99613.00;;;12.90
64960;BMP180;51487;52.266;10.542;2024-03-02T11:32:58;99604.00;;;12.90
64960;BMP180;51487;52.266;10.542;2024-03-02T11:35:27;99608.00;;;12.80
64960;BMP180;51487;52.266;10.542;2024-03-02T11:37:54;99608.00;;;12.90
64960;BMP180;51487;52.266;10.542;2024-03-02T11:40:25;99604.00;;;13.00
64960;BMP180;51487;52.266;10.542;2024-03-02T11:42:50;99608.00;;;13.00
64960;BMP180;51487;52.266;10.542;2024-03-02T11:45:17;99608.00;;;13.00
64960;BMP180;51487;52.266;10.542;2024-03-02T11:47:50;99601.00;;;13.00
64960;BMP180;51487;52.266;10.542;2024-03-02T11:50:39;99606.00;;;13.20
64960;BMP180;51487;52.266;10.542;2024-03-02T11:53:08;99600.00;;;13.30
64960;BMP180;51487;52.266;10.542;2024-03-02T11:55:36;99598.00;;;13.40
64960;BMP180;51487;52.266;10.542;2024-03-02T11:58:04;99599.00;;;13.40
64960;BMP180;51487;52.266;10.542;2024-03-02T12:00:29;99601.00;;;13.40
64960;BMP180;51487;52.266;10.542;2024-03-02T12:03:04;99600.00;;;13.40
64960;BMP180;51487;52.266;10.542;2024-03-02T12:05:32;99606.00;;;13.30
64960;BMP180;51487;52.266;10.542;2024-03-02T12:07:59;99611.00;;;13.40
64960;BMP180;51487;52.266;10.542;2024-03-02T12:10:27;99599.00;;;13.60
64960;BMP180;51487;52.266;10.542;2024-03-02T12:12:58;99599.00;;;13.70
64960;BMP180;51487;52.266;10.542;2024-03-02T12:15:31;99595.00;;;13.70
64960;BMP180;51487;52.266;10.542;2024-03-02T12:17:59;99592.00;;;13.80
64960;BMP180;51487;52.266;10.542;2024-03-02T12:20:27;99603.00;;;13.70
64960;BMP180;51487;52.266;10.542;2024-03-02T12:22:57;99598.00;;;13.80
64960;BMP180;51487;52.266;10.542;2024-03-02T12:25:25;99597.00;;;14.10
64960;BMP180;51487;52.266;10.542;2024-03-02T12:27:54;99592.00;;;13.90
64960;BMP180;51487;52.266;10.542;2024-03-02T12:30:22;99595.00;;;13.90
64960;BMP180;51487;52.266;10.542;2024-03-02T12:32:48;99591.00;;;14.00
64960;BMP180;51487;52.266;10.542;2024-03-02T12:35:15;99588.00;;;13.90
64960;BMP180;51487;52.266;10.542;2024-03-02T12:37:48;99591.00;;;14.10
64960;BMP180;51487;52.266;10.542;2024-03-02T12:40:16;99591.00;;;14.20
64960;BMP180;51487;52.266;10.542;2024-03-02T12:42:44;99588.00;;;14.10
64960;BMP180;51487;52.266;10.542;2024-03-02T12:45:11;99587.00;;;14.00
64960;BMP180;51487;52.266;10.542;2024-03-02T12:47:39;99575.00;;;14.20
64960;BMP180;51487;52.266;10.542;2024-03-02T12:50:07;99574.00;;;14.10
64960;BMP180;51487;52.266;10.542;2024-03-02T12:52:33;99578.00;;;14.10
64960;BMP180;51487;52.266;10.542;2024-03-02T12:55:04;99567.00;;;14.10
64960;BMP180;51487;52.266;10.542;2024-03-02T12:57:31;99566.00;;;14.00
64960;BMP180;51487;52.266;10.542;2024-03-02T12:59:59;99569.00;;;13.90
64960;BMP180;51487;52.266;10.542;2024-03-02T13:02:36;99562.00;;;14.10
64960;BMP180;51487;52.266;10.542;2024-03-02T13:05:06;99564.00;;;14.00
64960;BMP180;51487;52.266;10.542;2024-03-02T13:07:36;99566.00;;;14.10
64960;BMP180;51487;52.266;10.542;2024-03-02T13:10:03;99563.00;;;13.90
64960;BMP180;51487;52.266;10.542;2024-03-02T13:12:30;99560.00;;;14.00
64960;BMP180;51487;52.266;10.542;2024-03-02T13:14:58;99567.00;;;13.80
64960;BMP180;51487;52.266;10.542;2024-03-02T13:17:24;99570.00;;;13.70
64960;BMP180;51487;52.266;10.542;2024-03-02T13:19:57;99571.00;;;13.80
64960;BMP180;51487;52.266;10.542;2024-03-02T13:22:24;99569.00;;;13.80
64960;BMP180;51487;52.266;10.542;2024-03-02T13:24:51;99569.00;;;13.80
64960;BMP180;51487;52.266;10.542;2024-03-02T13:27:17;99573.00;;;13.80
64960;BMP180;51487;52.266;10.542;2024-03-02T13:29:46;99566.00;;;13.70
64960;BMP180;51487;52.266;10.542;2024-03-02T13:32:13;99566.00;;;13.60
64960;BMP180;51487;52.266;10.542;2024-03-02T13:34:40;99565.00;;;13.50
64960;BMP180;51487;52.266;10.542;2024-03-02T13:37:05;99564.00;;;13.60
64960;BMP180;51487;52.266;10.542;2024-03-02T13:39:31;99557.00;;;13.70
64960;BMP180;51487;52.266;10.542;2024-03-02T13:41:58;99553.00;;;13.70
64960;BMP180;51487;52.266;10.542;2024-03-02T13:44:30;99554.00;;;13.70
64960;BMP180;51487;52.266;10.542;2024-03-02T13:46:56;99560.00;;;13.80
64960;BMP180;51487;52.266;10.542;2024-03-02T13:49:23;99560.00;;;13.80
64960;BMP180;51487;52.266;10.542;2024-03-02T13:51:49;99555.00;;;13.80
64960;BMP180;51487;52.266;10.542;2024-03-02T13:54:15;99556.00;;;13.80
64960;BMP180;51487;52.266;10.542;2024-03-02T13:56:40;99553.00;;;13.90
64960;BMP180;51487;52.266;10.542;2024-03-02T13:59:07;99551.00;;;13.90
64960;BMP180;51487;52.266;10.542;2024-03-02T14:01:33;99553.00;;;14.00
64960;BMP180;51487;52.266;10.542;2024-03-02T14:03:59;99546.00;;;14.00
64960;BMP180;51487;52.266;10.542;2024-03-02T14:06:24;99555.00;;;14.10
64960;BMP180;51487;52.266;10.542;2024-03-02T14:08:52;99554.00;;;14.20
64960;BMP180;51487;52.266;10.542;2024-03-02T14:11:18;99556.00;;;14.20
64960;BMP180;51487;52.266;10.542;2024-03-02T14:13:44;99551.00;;;14.20
64960;BMP180;51487;52.266;10.542;2024-03-02T14:16:15;99554.00;;;14.10
64960;BMP180;51487;52.266;10.542;2024-03-02T14:18:41;99549.00;;;14.10